FW1998 Weather Reports


Display with metric or nautical units.
time (UTC)temp
F
wind
direction
speed
MPH
gust
MPH
rain 1hr
in
rain 24hr
in
rain mn
in
humidity
%
barometer
mb
20210515175349 54 245 1.0 8.0 0.01 0.00 0.01 90 1005.8
20210515174757 54 265 4.0 16.0 0.01 0.00 0.01 89 1005.8
20210515174148 53 206 2.0 8.0 0.01 0.00 0.01 90 1005.8
20210515173558 53 247 2.0 8.0 0.01 0.00 0.01 92 1005.8
20210515172949 54 234 2.0 12.0 0.01 0.00 0.01 93 1005.8
20210515172357 54 248 0.0 8.0 0.01 0.00 0.01 96 1005.8
20210515171748 54 240 1.0 12.0 0.01 0.00 0.01 96 1005.8
20210515171157 55 251 1.0 8.0 0.01 0.00 0.01 99 1005.8
20210515170549 55 265 2.0 12.0 0.00 0.00 0.00 95 1006.1
20210515165958 55 244 1.0 8.0 0.00 0.00 0.00 91 1005.8
20210515165349 55 265 1.0 8.0 0.00 0.00 0.00 89 1005.8
20210515164757 55 271 2.0 12.0 0.00 0.00 0.00 88 1005.8
20210515164148 55 254 4.0 12.0 0.00 0.00 0.00 90 1005.8
20210515163556 56 244 2.0 8.0 0.00 0.00 0.00 91 1006.1
20210515162949 56 254 3.0 12.0 0.00 0.00 0.00 91 1005.8
20210515162356 57 254 2.0 8.0 0.00 0.00 0.00 94 1005.8
20210515161748 58 270 4.0 12.0 0.00 0.00 0.00 89 1005.8
20210515161157 59 235 3.0 12.0 0.00 0.00 0.00 86 1005.4
20210515160548 59 264 6.0 16.0 0.00 0.00 0.00 82 1005.4
20210515155956 60 264 7.0 24.0 0.00 0.00 0.00 74 1005.8
20210515155348 60 231 3.0 16.0 0.00 0.00 0.00 70 1005.1
20210515154756 60 276 5.0 16.0 0.00 0.00 0.00 70 1005.4
20210515154149 61 257 3.0 16.0 0.00 0.00 0.00 70 1005.4
20210515153556 61 267 4.0 16.0 0.00 0.00 0.00 70 1005.1
20210515152948 61 283 3.0 12.0 0.00 0.00 0.00 68 1005.1
20210515152356 61 289 3.0 16.0 0.00 0.00 0.00 68 1005.1
20210515151748 61 274 1.0 12.0 0.00 0.00 0.00 70 1005.1
20210515151156 61 202 1.0 8.0 0.00 0.00 0.00 71 1004.7
20210515150548 61 246 0.0 0.0 0.00 0.00 0.00 75 1005.4
20210515145956 62 244 0.0 0.0 0.00 0.00 0.00 74 1005.1
20210515145349 62 244 0.0 4.0 0.00 0.00 0.00 73 1005.4
20210515144756 62 215 1.0 4.0 0.00 0.00 0.00 73 1005.1
20210515144148 62 246 0.0 4.0 0.00 0.00 0.00 72 1005.4
20210515143556 62 252 1.0 8.0 0.00 0.00 0.00 74 1005.4
20210515142948 61 247 0.0 4.0 0.00 0.00 0.00 71 1005.8
20210515142356 61 241 1.0 8.0 0.00 0.00 0.00 76 1005.4
20210515141749 61 268 0.0 4.0 0.00 0.00 0.00 74 1005.8
20210515141156 61 243 0.0 4.0 0.00 0.00 0.00 76 1005.8
20210515140548 62 247 0.0 4.0 0.00 0.00 0.00 73 1005.8
20210515135956 62 254 0.0 4.0 0.00 0.00 0.00 73 1005.8
20210515135348 62 239 0.0 4.0 0.00 0.00 0.00 73 1006.1
20210515134756 63 247 0.0 4.0 0.00 0.00 0.00 74 1005.8
20210515134149 64 289 0.0 4.0 0.00 0.00 0.00 71 1005.8
20210515133556 64 223 0.0 4.0 0.00 0.00 0.00 70 1006.1
20210515132948 66 266 1.0 12.0 0.00 0.00 0.00 70 1006.1
20210515132356 66 248 2.0 8.0 0.00 0.00 0.00 67 1006.1
20210515131748 67 259 2.0 12.0 0.00 0.00 0.00 65 1006.1
20210515131156 67 248 0.0 8.0 0.00 0.00 0.00 63 1006.1
20210515130548 66 246 0.0 4.0 0.00 0.00 0.00 62 1006.1
20210515125956 65 250 0.0 4.0 0.00 0.00 0.00 64 1006.1
20210515125349 64 243 0.0 4.0 0.00 0.00 0.00 69 1006.4
20210515124756 63 168 0.0 4.0 0.00 0.00 0.00 68 1006.4
20210515124148 62 249 0.0 8.0 0.00 0.00 0.00 75 1006.8
20210515123556 61 225 0.0 4.0 0.00 0.00 0.00 74 1006.4
20210515122948 61 238 0.0 4.0 0.00 0.00 0.00 73 1006.8
20210515122356 60 247 0.0 4.0 0.00 0.00 0.00 70 1006.8
20210515121748 59 247 0.0 4.0 0.00 0.00 0.00 72 1007.1
20210515121157 59 236 0.0 4.0 0.00 0.00 0.00 76 1007.1
20210515120548 60 248 0.0 4.0 0.00 0.00 0.00 79 1007.1
20210515115956 61 258 1.0 8.0 0.00 0.00 0.00 75 1007.4
20210515115349 62 236 6.0 24.0 0.00 0.00 0.00 75 1007.4
20210515114756 63 251 3.0 8.0 0.00 0.00 0.00 71 1007.4
20210515114150 64 278 2.0 8.0 0.00 0.00 0.00 71 1007.1
20210515113557 64 249 1.0 8.0 0.00 0.00 0.00 67 1007.1
20210515112948 63 224 1.0 8.0 0.00 0.00 0.00 66 1007.1
20210515112356 62 241 0.0 4.0 0.00 0.00 0.00 68 1007.1
20210515111749 61 253 0.0 4.0 0.00 0.00 0.00 72 1007.4
20210515111156 60 250 0.0 4.0 0.00 0.00 0.00 76 1007.4
20210515110548 60 248 0.0 8.0 0.00 0.00 0.00 79 1007.4
20210515105956 60 248 1.0 4.0 0.00 0.00 0.00 80 1007.8
20210515105348 60 242 0.0 4.0 0.00 0.00 0.00 75 1007.8
20210515104757 60 251 1.0 8.0 0.00 0.00 0.00 75 1007.8
20210515104148 61 259 2.0 12.0 0.00 0.00 0.00 75 1008.1
20210515103556 61 227 2.0 12.0 0.00 0.00 0.00 75 1007.8
20210515102948 62 277 3.0 12.0 0.00 0.00 0.00 72 1008.1
20210515102356 62 253 2.0 12.0 0.00 0.00 0.00 74 1008.5
20210515101749 62 303 2.0 12.0 0.00 0.00 0.00 76 1008.5
20210515101156 62 260 7.0 20.0 0.00 0.00 0.00 72 1008.5
20210515100548 62 246 3.0 8.0 0.00 0.00 0.00 68 1008.5
20210515095957 62 306 3.0 16.0 0.00 0.00 0.00 68 1008.5
20210515095348 61 258 3.0 12.0 0.00 0.00 0.00 71 1008.5
20210515094759 61 243 3.0 12.0 0.00 0.00 0.00 73 1008.5
20210515094151 61 253 3.0 12.0 0.00 0.00 0.00 73 1008.8
20210515093559 61 270 3.0 12.0 0.00 0.00 0.00 74 1008.8
20210515092948 60 260 0.0 8.0 0.00 0.00 0.00 74 1008.8
20210515092359 60 248 1.0 8.0 0.00 0.00 0.00 77 1008.8
20210515091748 60 242 1.0 8.0 0.00 0.00 0.00 77 1008.8
20210515091159 59 239 2.0 8.0 0.00 0.00 0.00 77 1008.8
20210515090548 59 283 3.0 12.0 0.00 0.00 0.00 76 1009.1
20210515085959 59 244 1.0 8.0 0.00 0.00 0.00 76 1009.1
20210515085349 59 270 2.0 8.0 0.00 0.00 0.00 77 1009.1
20210515084759 59 296 1.0 8.0 0.00 0.00 0.00 77 1009.1
20210515084148 59 235 2.0 12.0 0.00 0.00 0.00 79 1009.1
20210515083559 59 265 1.0 8.0 0.00 0.00 0.00 77 1009.1
20210515082948 59 238 3.0 12.0 0.00 0.00 0.00 78 1009.1
20210515082359 59 256 2.0 8.0 0.00 0.00 0.00 78 1009.1
20210515081749 58 250 2.0 8.0 0.00 0.00 0.00 80 1009.1
20210515081156 58 248 3.0 12.0 0.00 0.00 0.00 78 1009.1
20210515080548 58 231 0.0 4.0 0.00 0.00 0.00 81 1009.5
20210515075956 58 236 0.0 4.0 0.00 0.00 0.00 84 1009.1
20210515075349 58 247 0.0 8.0 0.00 0.00 0.00 82 1009.1
20210515074756 58 251 2.0 12.0 0.00 0.00 0.00 80 1009.5
20210515074148 57 263 1.0 8.0 0.00 0.00 0.00 81 1009.5
20210515073557 57 204 1.0 16.0 0.00 0.00 0.00 84 1009.5
20210515072950 57 260 2.0 12.0 0.00 0.00 0.00 80 1009.5
20210515072356 56 253 0.0 4.0 0.00 0.00 0.00 79 1009.5
20210515071752 55 238 1.0 8.0 0.00 0.00 0.00 81 1009.5
20210515071156 54 254 0.0 8.0 0.00 0.00 0.00 83 1009.8
20210515070551 54 252 0.0 4.0 0.00 0.00 0.00 85 1009.8
20210515065958 53 242 1.0 8.0 0.00 0.00 0.00 86 1009.8
20210515065351 53 272 1.0 8.0 0.00 0.00 0.00 87 1009.8
20210515064757 53 245 0.0 4.0 0.00 0.00 0.00 90 1009.8
20210515064151 53 247 1.0 8.0 0.00 0.00 0.00 90 1009.8
20210515063556 52 272 1.0 8.0 0.00 0.00 0.00 90 1009.8
20210515062952 52 245 0.0 4.0 0.00 0.00 0.00 89 1010.2
20210515062356 52 248 0.0 4.0 0.00 0.00 0.00 90 1010.2
20210515061751 52 246 0.0 4.0 0.00 0.00 0.00 91 1010.2
20210515061157 52 249 0.0 0.0 0.00 0.00 0.00 92 1009.8
20210515060551 51 246 0.0 4.0 0.00 0.00 0.00 93 1010.2
20210515055956 51 251 0.0 4.0 0.00 0.00 0.00 93 1009.8
20210515055351 50 248 0.0 4.0 0.00 0.00 0.00 96 1010.2
20210515054757 49 252 0.0 4.0 0.00 0.00 0.00 97 1010.2
20210515054151 49 244 0.0 0.0 0.00 0.00 0.00 98 1010.2
20210515053556 48 250 0.0 4.0 0.00 0.00 0.00 99 1010.2
20210515052951 48 248 0.0 0.0 0.00 0.00 0.00 99 1010.2
20210515052356 47 242 0.0 0.0 0.00 0.00 0.00 99 1010.5
20210515051750 47 248 0.0 0.0 0.00 0.00 0.00 99 1010.2
20210515051157 47 248 0.0 0.0 0.00 0.00 0.00 99 1010.2
20210515050550 46 248 0.0 0.0 0.00 0.00 0.00 99 1010.2
20210515045956 46 247 0.0 0.0 0.00 0.00 0.00 99 1010.2
20210515045351 46 248 0.0 0.0 0.00 0.00 0.00 99 1010.2
20210515044756 46 247 0.0 0.0 0.00 0.00 0.00 99 1010.2
20210515044150 46 243 0.0 0.0 0.00 0.00 0.00 99 1010.2
20210515043556 46 247 0.0 0.0 0.00 0.00 0.00 99 1010.2
20210515042950 46 242 0.0 0.0 0.00 0.00 0.00 99 1010.2
20210515042356 46 237 0.0 0.0 0.00 0.00 0.00 99 1010.2
20210515041751 46 215 0.0 0.0 0.00 0.00 0.00 99 1010.2
20210515041156 47 156 0.0 0.0 0.00 0.00 0.00 99 1010.2
20210515040551 47 106 0.0 0.0 0.00 0.00 0.00 99 1010.2
20210515035957 48 97 0.0 0.0 0.00 0.00 0.00 99 1010.2
20210515035350 48 90 0.0 0.0 0.00 0.00 0.00 99 1010.2
20210515034756 48 89 0.0 0.0 0.00 0.00 0.00 99 1010.2
20210515034150 48 82 0.0 0.0 0.00 0.00 0.00 99 1010.2
20210515033556 48 80 0.0 4.0 0.00 0.00 0.00 99 1010.2
20210515032951 47 91 0.0 4.0 0.00 0.00 0.00 99 1010.2
20210515032356 47 101 0.0 4.0 0.00 0.00 0.00 99 1010.2
20210515031751 48 76 0.0 0.0 0.00 0.00 0.00 99 1010.2
20210515031157 48 88 0.0 0.0 0.00 0.00 0.00 99 1010.2
20210515030550 48 89 0.0 0.0 0.00 0.00 0.00 99 1010.2
20210515025956 48 92 0.0 0.0 0.00 0.00 0.00 99 1010.2
20210515025352 49 88 0.0 0.0 0.00 0.00 0.00 99 1010.2
20210515024756 49 92 0.0 0.0 0.00 0.00 0.00 99 1010.2
20210515024151 49 87 0.0 4.0 0.00 0.00 0.00 99 1010.2
20210515023556 49 93 0.0 0.0 0.00 0.00 0.00 99 1010.2
20210515022948 49 93 0.0 0.0 0.00 0.00 0.00 99 1010.5
20210515022357 49 79 0.0 0.0 0.00 0.00 0.00 99 1010.5
20210515021748 49 90 0.0 0.0 0.00 0.00 0.00 99 1010.8
20210515021156 49 101 0.0 0.0 0.00 0.00 0.00 98 1010.8
20210515020548 49 88 0.0 0.0 0.00 0.00 0.00 99 1010.8
20210515015956 50 93 0.0 0.0 0.00 0.00 0.00 98 1010.8
20210515015349 50 67 0.0 4.0 0.00 0.00 0.00 99 1010.5
20210515014756 50 93 0.0 0.0 0.00 0.00 0.00 99 1010.8
20210515014148 51 93 0.0 0.0 0.00 0.00 0.00 98 1010.8
20210515013556 51 96 0.0 0.0 0.00 0.00 0.00 97 1010.8
20210515012948 51 91 0.0 0.0 0.00 0.00 0.00 96 1010.8
20210515012358 51 94 0.0 4.0 0.00 0.00 0.00 95 1010.8
20210515011748 51 96 0.0 0.0 0.00 0.00 0.00 94 1010.8
20210515011156 52 97 0.0 0.0 0.00 0.00 0.00 93 1010.5
20210515010548 52 92 0.0 4.0 0.00 0.00 0.00 92 1010.8
20210515005957 52 87 0.0 8.0 0.00 0.00 0.00 93 1010.8
20210515005348 52 98 0.0 0.0 0.00 0.00 0.00 93 1010.8
20210515004756 52 103 1.0 8.0 0.00 0.00 0.00 92 1010.8
20210515004148 51 41 1.0 8.0 0.00 0.00 0.00 93 1010.8
20210515003556 51 113 0.0 4.0 0.00 0.00 0.00 94 1010.8
20210515002948 51 75 0.0 4.0 0.00 0.00 0.00 95 1010.8
20210515002357 51 103 0.0 4.0 0.00 0.00 0.00 97 1010.8
20210515001748 51 97 0.0 0.0 0.00 0.00 0.00 99 1010.8
20210515001156 51 101 0.0 0.0 0.00 0.00 0.00 99 1010.8
20210515000548 51 103 0.0 0.0 0.00 0.00 0.00 98 1010.8
20210514235956 51 113 0.0 0.0 0.00 0.00 0.00 99 1010.8
20210514235348 51 101 0.0 0.0 0.00 0.00 0.00 99 1010.8
20210514234756 51 102 0.0 0.0 0.00 0.00 0.00 99 1010.8
20210514234148 51 97 0.0 0.0 0.00 0.00 0.00 97 1010.8
20210514233556 51 101 0.0 0.0 0.00 0.00 0.00 97 1010.8
20210514232948 51 104 0.0 0.0 0.00 0.00 0.00 97 1010.8
20210514232357 51 100 0.0 4.0 0.00 0.00 0.00 95 1010.8
20210514231748 51 105 0.0 0.0 0.00 0.00 0.00 96 1010.8
20210514231156 51 108 0.0 0.0 0.00 0.00 0.00 98 1010.8
20210514230549 51 109 0.0 0.0 0.00 0.00 0.00 98 1010.8
20210514225956 51 107 0.0 0.0 0.00 0.00 0.00 98 1011.2
20210514225348 51 111 0.0 0.0 0.00 0.00 0.00 99 1011.2
20210514224756 51 110 0.0 0.0 0.00 0.00 0.00 98 1011.2
20210514224149 51 112 0.0 0.0 0.00 0.00 0.00 97 1011.2
20210514223556 51 110 0.0 0.0 0.00 0.00 0.00 97 1011.2
20210514222948 51 115 0.0 0.0 0.00 0.00 0.00 99 1011.2
20210514222356 51 118 0.0 0.0 0.00 0.00 0.00 98 1011.2
20210514221748 51 119 0.0 0.0 0.00 0.00 0.00 99 1011.2
20210514221156 51 130 0.0 0.0 0.00 0.00 0.00 99 1011.2
20210514220549 51 118 0.0 0.0 0.00 0.00 0.00 99 1011.2
20210514215956 51 132 0.0 0.0 0.00 0.00 0.01 99 1010.8
20210514215348 50 133 0.0 0.0 0.00 0.00 0.01 99 1011.2
20210514214756 50 130 0.0 0.0 0.00 0.00 0.01 99 1011.2
20210514214149 50 140 0.0 0.0 0.00 0.00 0.01 99 1011.2
20210514213556 51 145 0.0 0.0 0.00 0.00 0.01 99 1011.2
20210514212949 51 154 0.0 0.0 0.00 0.00 0.01 99 1011.2
20210514212356 51 160 0.0 0.0 0.00 0.00 0.01 99 1011.2
20210514211748 51 171 0.0 0.0 0.00 0.00 0.01 99 1011.2
20210514211156 51 179 0.0 0.0 0.00 0.00 0.01 99 1010.8
20210514210548 51 187 0.0 0.0 0.00 0.00 0.01 99 1010.8
20210514205957 51 198 0.0 0.0 0.00 0.00 0.01 99 1010.8
20210514205348 51 205 0.0 0.0 0.00 0.00 0.01 99 1010.8
20210514204756 52 211 0.0 0.0 0.00 0.00 0.01 99 1010.8
20210514204149 52 216 0.0 0.0 0.00 0.00 0.01 99 1010.8
20210514203556 52 222 0.0 0.0 0.00 0.00 0.01 99 1010.8
20210514202948 52 235 0.0 0.0 0.00 0.00 0.01 99 1010.8
20210514202356 53 229 0.0 0.0 0.00 0.00 0.01 99 1011.2
20210514201748 53 233 0.0 0.0 0.00 0.00 0.01 99 1010.8
20210514201156 53 243 0.0 0.0 0.00 0.00 0.01 98 1010.8
20210514200548 53 247 0.0 0.0 0.00 0.00 0.01 97 1010.8
20210514195957 54 243 0.0 0.0 0.00 0.00 0.01 95 1010.8
20210514195348 54 243 0.0 0.0 0.00 0.00 0.01 95 1010.5
20210514194756 54 245 0.0 0.0 0.00 0.00 0.01 94 1010.5
20210514194148 54 247 0.0 0.0 0.00 0.00 0.01 92 1010.5
20210514193556 55 235 0.0 4.0 0.00 0.00 0.01 90 1010.5
20210514192948 55 248 0.0 4.0 0.00 0.00 0.01 89 1010.5
20210514192356 55 248 0.0 4.0 0.00 0.00 0.01 87 1010.2
20210514191748 56 251 1.0 4.0 0.00 0.00 0.01 86 1010.2
20210514191156 56 241 1.0 4.0 0.00 0.00 0.01 84 1010.2
20210514190548 57 262 1.0 8.0 0.00 0.00 0.01 82 1010.2
20210514185956 57 214 2.0 8.0 0.00 0.00 0.01 81 1009.8
20210514185348 58 255 3.0 8.0 0.00 0.00 0.01 79 1010.2
20210514184756 58 259 2.0 12.0 0.00 0.00 0.01 77 1009.8
20210514184148 59 290 3.0 16.0 0.00 0.00 0.01 75 1009.8
20210514183556 60 266 0.0 4.0 0.00 0.00 0.01 76 1009.8
20210514182948 61 248 0.0 4.0 0.00 0.00 0.01 75 1009.8
20210514182356 61 240 1.0 8.0 0.00 0.00 0.01 73 1009.5
20210514181748 62 249 1.0 12.0 0.00 0.00 0.01 72 1009.5
20210514181156 62 232 1.0 12.0 0.00 0.00 0.01 69 1009.5
20210514180548 62 246 1.0 12.0 0.00 0.00 0.01 69 1009.1
20210514175956 62 250 0.0 8.0 0.00 0.00 0.01 68 1009.1